<?xml version="1.0" encoding="UTF-8" standalone="no" ?>
<gpx xmlns="http://www.topografix.com/GPX/1/1" xmlns:xsi="http://www.w3.org/2001/XMLSchema-instance" xsi:schemaLocation="http://www.topografix.com/GPX/1/1 http://www.topografix.com/GPX/1/1/gpx.xsd" version="1.1" creator="VisuGPX - https://www.visugpx.com">
  <metadata>
    <name>2023-01-11 21:08:23 [Suunto App]</name>
  </metadata>
  <trk>
    <name><![CDATA[2023-01-11 21:08:23 [Suunto App]_1]]></name>
    <trkseg>
      <trkpt lat="43.59046" lon="1.38945">
        <ele>154</ele>
        <time>2023-01-11T20:08:23Z</time>
      </trkpt>
      <trkpt lat="43.59047" lon="1.38944">
        <ele>156</ele>
        <time>2023-01-11T20:09:00Z</time>
      </trkpt>
      <trkpt lat="43.59049" lon="1.38943">
        <ele>156</ele>
        <time>2023-01-11T20:09:06Z</time>
      </trkpt>
      <trkpt lat="43.59051" lon="1.38941">
        <ele>156</ele>
        <time>2023-01-11T20:09:09Z</time>
      </trkpt>
      <trkpt lat="43.59049" lon="1.38942">
        <ele>155</ele>
        <time>2023-01-11T20:09:44Z</time>
      </trkpt>
      <trkpt lat="43.59047" lon="1.38943">
        <ele>155</ele>
        <time>2023-01-11T20:09:47Z</time>
      </trkpt>
      <trkpt lat="43.59045" lon="1.38943">
        <ele>155</ele>
        <time>2023-01-11T20:10:06Z</time>
      </trkpt>
      <trkpt lat="43.59044" lon="1.38942">
        <ele>156</ele>
        <time>2023-01-11T20:10:11Z</time>
      </trkpt>
      <trkpt lat="43.59042" lon="1.38944">
        <ele>155</ele>
        <time>2023-01-11T20:10:14Z</time>
      </trkpt>
      <trkpt lat="43.59044" lon="1.38943">
        <ele>154</ele>
        <time>2023-01-11T20:10:28Z</time>
      </trkpt>
      <trkpt lat="43.59046" lon="1.38942">
        <ele>154</ele>
        <time>2023-01-11T20:10:30Z</time>
      </trkpt>
      <trkpt lat="43.59044" lon="1.38944">
        <ele>155</ele>
        <time>2023-01-11T20:10:46Z</time>
      </trkpt>
      <trkpt lat="43.59042" lon="1.38945">
        <ele>155</ele>
        <time>2023-01-11T20:10:50Z</time>
      </trkpt>
      <trkpt lat="43.59041" lon="1.38946">
        <ele>155</ele>
        <time>2023-01-11T20:10:54Z</time>
      </trkpt>
      <trkpt lat="43.59043" lon="1.38946">
        <ele>155</ele>
        <time>2023-01-11T20:11:20Z</time>
      </trkpt>
      <trkpt lat="43.59045" lon="1.38944">
        <ele>155</ele>
        <time>2023-01-11T20:11:22Z</time>
      </trkpt>
      <trkpt lat="43.59047" lon="1.38943">
        <ele>155</ele>
        <time>2023-01-11T20:11:24Z</time>
      </trkpt>
      <trkpt lat="43.59049" lon="1.38942">
        <ele>155</ele>
        <time>2023-01-11T20:11:26Z</time>
      </trkpt>
      <trkpt lat="43.59047" lon="1.38943">
        <ele>155</ele>
        <time>2023-01-11T20:11:58Z</time>
      </trkpt>
      <trkpt lat="43.59045" lon="1.38944">
        <ele>155</ele>
        <time>2023-01-11T20:12:01Z</time>
      </trkpt>
      <trkpt lat="43.59047" lon="1.38942">
        <ele>155</ele>
        <time>2023-01-11T20:12:18Z</time>
      </trkpt>
      <trkpt lat="43.59048" lon="1.38941">
        <ele>155</ele>
        <time>2023-01-11T20:12:20Z</time>
      </trkpt>
      <trkpt lat="43.5905" lon="1.3894">
        <ele>155</ele>
        <time>2023-01-11T20:12:22Z</time>
      </trkpt>
      <trkpt lat="43.59052" lon="1.38939">
        <ele>155</ele>
        <time>2023-01-11T20:12:25Z</time>
      </trkpt>
      <trkpt lat="43.5905" lon="1.3894">
        <ele>155</ele>
        <time>2023-01-11T20:13:14Z</time>
      </trkpt>
      <trkpt lat="43.59048" lon="1.38942">
        <ele>155</ele>
        <time>2023-01-11T20:13:17Z</time>
      </trkpt>
      <trkpt lat="43.59046" lon="1.38943">
        <ele>155</ele>
        <time>2023-01-11T20:13:20Z</time>
      </trkpt>
      <trkpt lat="43.59048" lon="1.38942">
        <ele>155</ele>
        <time>2023-01-11T20:13:36Z</time>
      </trkpt>
      <trkpt lat="43.5905" lon="1.38941">
        <ele>155</ele>
        <time>2023-01-11T20:13:38Z</time>
      </trkpt>
      <trkpt lat="43.59052" lon="1.3894">
        <ele>155</ele>
        <time>2023-01-11T20:13:40Z</time>
      </trkpt>
      <trkpt lat="43.5905" lon="1.3894">
        <ele>155</ele>
        <time>2023-01-11T20:13:53Z</time>
      </trkpt>
      <trkpt lat="43.59047" lon="1.38942">
        <ele>155</ele>
        <time>2023-01-11T20:13:56Z</time>
      </trkpt>
      <trkpt lat="43.59045" lon="1.38943">
        <ele>155</ele>
        <time>2023-01-11T20:13:58Z</time>
      </trkpt>
      <trkpt lat="43.59047" lon="1.38941">
        <ele>155</ele>
        <time>2023-01-11T20:14:16Z</time>
      </trkpt>
      <trkpt lat="43.59044" lon="1.38942">
        <ele>155</ele>
        <time>2023-01-11T20:14:21Z</time>
      </trkpt>
      <trkpt lat="43.59047" lon="1.3894">
        <ele>155</ele>
        <time>2023-01-11T20:15:05Z</time>
      </trkpt>
      <trkpt lat="43.59048" lon="1.38938">
        <ele>155</ele>
        <time>2023-01-11T20:15:07Z</time>
      </trkpt>
      <trkpt lat="43.59046" lon="1.38941">
        <ele>155</ele>
        <time>2023-01-11T20:15:15Z</time>
      </trkpt>
      <trkpt lat="43.59044" lon="1.38942">
        <ele>155</ele>
        <time>2023-01-11T20:15:18Z</time>
      </trkpt>
      <trkpt lat="43.59042" lon="1.38943">
        <ele>155</ele>
        <time>2023-01-11T20:16:10Z</time>
      </trkpt>
      <trkpt lat="43.5904" lon="1.38945">
        <ele>155</ele>
        <time>2023-01-11T20:16:14Z</time>
      </trkpt>
      <trkpt lat="43.59043" lon="1.38944">
        <ele>155</ele>
        <time>2023-01-11T20:16:36Z</time>
      </trkpt>
      <trkpt lat="43.59041" lon="1.38946">
        <ele>155</ele>
        <time>2023-01-11T20:16:43Z</time>
      </trkpt>
      <trkpt lat="43.59044" lon="1.38945">
        <ele>155</ele>
        <time>2023-01-11T20:16:59Z</time>
      </trkpt>
      <trkpt lat="43.59045" lon="1.38944">
        <ele>155</ele>
        <time>2023-01-11T20:17:01Z</time>
      </trkpt>
      <trkpt lat="43.59047" lon="1.38944">
        <ele>155</ele>
        <time>2023-01-11T20:17:03Z</time>
      </trkpt>
      <trkpt lat="43.59049" lon="1.38943">
        <ele>155</ele>
        <time>2023-01-11T20:17:05Z</time>
      </trkpt>
      <trkpt lat="43.59047" lon="1.38943">
        <ele>155</ele>
        <time>2023-01-11T20:18:44Z</time>
      </trkpt>
      <trkpt lat="43.59045" lon="1.38945">
        <ele>155</ele>
        <time>2023-01-11T20:18:53Z</time>
      </trkpt>
      <trkpt lat="43.59043" lon="1.38946">
        <ele>155</ele>
        <time>2023-01-11T20:19:26Z</time>
      </trkpt>
      <trkpt lat="43.59041" lon="1.38946">
        <ele>155</ele>
        <time>2023-01-11T20:19:28Z</time>
      </trkpt>
      <trkpt lat="43.59044" lon="1.38944">
        <ele>155</ele>
        <time>2023-01-11T20:20:01Z</time>
      </trkpt>
      <trkpt lat="43.59046" lon="1.38943">
        <ele>155</ele>
        <time>2023-01-11T20:20:03Z</time>
      </trkpt>
      <trkpt lat="43.59044" lon="1.38944">
        <ele>154</ele>
        <time>2023-01-11T20:20:09Z</time>
      </trkpt>
      <trkpt lat="43.59042" lon="1.38945">
        <ele>154</ele>
        <time>2023-01-11T20:20:11Z</time>
      </trkpt>
      <trkpt lat="43.5904" lon="1.38945">
        <ele>154</ele>
        <time>2023-01-11T20:20:14Z</time>
      </trkpt>
      <trkpt lat="43.59042" lon="1.38944">
        <ele>154</ele>
        <time>2023-01-11T20:20:18Z</time>
      </trkpt>
      <trkpt lat="43.59045" lon="1.38943">
        <ele>154</ele>
        <time>2023-01-11T20:20:20Z</time>
      </trkpt>
      <trkpt lat="43.59047" lon="1.38942">
        <ele>154</ele>
        <time>2023-01-11T20:20:22Z</time>
      </trkpt>
      <trkpt lat="43.59049" lon="1.38942">
        <ele>154</ele>
        <time>2023-01-11T20:20:24Z</time>
      </trkpt>
      <trkpt lat="43.5905" lon="1.38941">
        <ele>155</ele>
        <time>2023-01-11T20:20:33Z</time>
      </trkpt>
      <trkpt lat="43.59048" lon="1.38942">
        <ele>155</ele>
        <time>2023-01-11T20:20:52Z</time>
      </trkpt>
      <trkpt lat="43.59046" lon="1.38943">
        <ele>155</ele>
        <time>2023-01-11T20:20:54Z</time>
      </trkpt>
      <trkpt lat="43.59044" lon="1.38945">
        <ele>155</ele>
        <time>2023-01-11T20:20:57Z</time>
      </trkpt>
      <trkpt lat="43.59046" lon="1.38943">
        <ele>155</ele>
        <time>2023-01-11T20:21:03Z</time>
      </trkpt>
      <trkpt lat="43.59048" lon="1.38942">
        <ele>154</ele>
        <time>2023-01-11T20:21:34Z</time>
      </trkpt>
      <trkpt lat="43.5905" lon="1.38941">
        <ele>154</ele>
        <time>2023-01-11T20:21:36Z</time>
      </trkpt>
      <trkpt lat="43.59049" lon="1.38944">
        <ele>154</ele>
        <time>2023-01-11T20:21:50Z</time>
      </trkpt>
      <trkpt lat="43.59048" lon="1.38946">
        <ele>154</ele>
        <time>2023-01-11T20:22:04Z</time>
      </trkpt>
      <trkpt lat="43.59045" lon="1.38945">
        <ele>155</ele>
        <time>2023-01-11T20:22:40Z</time>
      </trkpt>
      <trkpt lat="43.59043" lon="1.38947">
        <ele>155</ele>
        <time>2023-01-11T20:23:10Z</time>
      </trkpt>
      <trkpt lat="43.59041" lon="1.38946">
        <ele>155</ele>
        <time>2023-01-11T20:23:13Z</time>
      </trkpt>
      <trkpt lat="43.59043" lon="1.38946">
        <ele>154</ele>
        <time>2023-01-11T20:24:00Z</time>
      </trkpt>
      <trkpt lat="43.59041" lon="1.38947">
        <ele>155</ele>
        <time>2023-01-11T20:24:05Z</time>
      </trkpt>
      <trkpt lat="43.59043" lon="1.38944">
        <ele>155</ele>
        <time>2023-01-11T20:24:34Z</time>
      </trkpt>
      <trkpt lat="43.59045" lon="1.38943">
        <ele>155</ele>
        <time>2023-01-11T20:24:36Z</time>
      </trkpt>
      <trkpt lat="43.59046" lon="1.38941">
        <ele>155</ele>
        <time>2023-01-11T20:24:38Z</time>
      </trkpt>
      <trkpt lat="43.59047" lon="1.38938">
        <ele>155</ele>
        <time>2023-01-11T20:24:41Z</time>
      </trkpt>
      <trkpt lat="43.59046" lon="1.38936">
        <ele>155</ele>
        <time>2023-01-11T20:24:42Z</time>
      </trkpt>
      <trkpt lat="43.59046" lon="1.38933">
        <ele>155</ele>
        <time>2023-01-11T20:24:43Z</time>
      </trkpt>
      <trkpt lat="43.59045" lon="1.3893">
        <ele>155</ele>
        <time>2023-01-11T20:24:44Z</time>
      </trkpt>
      <trkpt lat="43.59044" lon="1.38926">
        <ele>155</ele>
        <time>2023-01-11T20:24:45Z</time>
      </trkpt>
      <trkpt lat="43.59046" lon="1.38929">
        <ele>155</ele>
        <time>2023-01-11T20:24:48Z</time>
      </trkpt>
      <trkpt lat="43.59048" lon="1.38932">
        <ele>155</ele>
        <time>2023-01-11T20:24:49Z</time>
      </trkpt>
      <trkpt lat="43.59048" lon="1.38936">
        <ele>155</ele>
        <time>2023-01-11T20:24:51Z</time>
      </trkpt>
      <trkpt lat="43.59048" lon="1.38939">
        <ele>155</ele>
        <time>2023-01-11T20:24:53Z</time>
      </trkpt>
      <trkpt lat="43.59048" lon="1.38941">
        <ele>155</ele>
        <time>2023-01-11T20:24:55Z</time>
      </trkpt>
      <trkpt lat="43.59048" lon="1.38944">
        <ele>155</ele>
        <time>2023-01-11T20:25:05Z</time>
      </trkpt>
      <trkpt lat="43.59047" lon="1.38947">
        <ele>155</ele>
        <time>2023-01-11T20:25:08Z</time>
      </trkpt>
      <trkpt lat="43.59045" lon="1.38946">
        <ele>155</ele>
        <time>2023-01-11T20:25:23Z</time>
      </trkpt>
      <trkpt lat="43.59044" lon="1.38947">
        <ele>155</ele>
        <time>2023-01-11T20:25:25Z</time>
      </trkpt>
      <trkpt lat="43.59045" lon="1.38946">
        <ele>155</ele>
        <time>2023-01-11T20:25:43Z</time>
      </trkpt>
      <trkpt lat="43.59047" lon="1.38944">
        <ele>155</ele>
        <time>2023-01-11T20:25:49Z</time>
      </trkpt>
      <trkpt lat="43.59045" lon="1.38945">
        <ele>154</ele>
        <time>2023-01-11T20:26:16Z</time>
      </trkpt>
      <trkpt lat="43.59043" lon="1.38946">
        <ele>154</ele>
        <time>2023-01-11T20:26:18Z</time>
      </trkpt>
      <trkpt lat="43.59044" lon="1.38943">
        <ele>155</ele>
        <time>2023-01-11T20:26:59Z</time>
      </trkpt>
      <trkpt lat="43.59046" lon="1.38943">
        <ele>155</ele>
        <time>2023-01-11T20:27:10Z</time>
      </trkpt>
      <trkpt lat="43.59043" lon="1.38945">
        <ele>155</ele>
        <time>2023-01-11T20:27:37Z</time>
      </trkpt>
      <trkpt lat="43.59042" lon="1.38946">
        <ele>155</ele>
        <time>2023-01-11T20:27:40Z</time>
      </trkpt>
      <trkpt lat="43.5904" lon="1.38948">
        <ele>154</ele>
        <time>2023-01-11T20:28:00Z</time>
      </trkpt>
      <trkpt lat="43.59038" lon="1.38949">
        <ele>155</ele>
        <time>2023-01-11T20:28:12Z</time>
      </trkpt>
      <trkpt lat="43.59039" lon="1.38946">
        <ele>155</ele>
        <time>2023-01-11T20:28:30Z</time>
      </trkpt>
      <trkpt lat="43.5904" lon="1.38945">
        <ele>155</ele>
        <time>2023-01-11T20:28:32Z</time>
      </trkpt>
      <trkpt lat="43.59042" lon="1.38944">
        <ele>154</ele>
        <time>2023-01-11T20:28:34Z</time>
      </trkpt>
      <trkpt lat="43.59044" lon="1.38943">
        <ele>154</ele>
        <time>2023-01-11T20:28:36Z</time>
      </trkpt>
      <trkpt lat="43.59046" lon="1.38943">
        <ele>154</ele>
        <time>2023-01-11T20:28:38Z</time>
      </trkpt>
      <trkpt lat="43.59045" lon="1.38946">
        <ele>154</ele>
        <time>2023-01-11T20:28:58Z</time>
      </trkpt>
      <trkpt lat="43.59043" lon="1.38945">
        <ele>155</ele>
        <time>2023-01-11T20:29:03Z</time>
      </trkpt>
      <trkpt lat="43.59041" lon="1.38945">
        <ele>155</ele>
        <time>2023-01-11T20:29:05Z</time>
      </trkpt>
      <trkpt lat="43.59038" lon="1.38944">
        <ele>155</ele>
        <time>2023-01-11T20:29:07Z</time>
      </trkpt>
      <trkpt lat="43.59036" lon="1.38944">
        <ele>155</ele>
        <time>2023-01-11T20:29:09Z</time>
      </trkpt>
      <trkpt lat="43.59038" lon="1.38944">
        <ele>154</ele>
        <time>2023-01-11T20:29:13Z</time>
      </trkpt>
      <trkpt lat="43.59041" lon="1.38944">
        <ele>154</ele>
        <time>2023-01-11T20:29:15Z</time>
      </trkpt>
      <trkpt lat="43.59042" lon="1.38946">
        <ele>154</ele>
        <time>2023-01-11T20:29:17Z</time>
      </trkpt>
      <trkpt lat="43.59044" lon="1.38947">
        <ele>154</ele>
        <time>2023-01-11T20:29:23Z</time>
      </trkpt>
      <trkpt lat="43.59045" lon="1.38945">
        <ele>155</ele>
        <time>2023-01-11T20:29:45Z</time>
      </trkpt>
      <trkpt lat="43.59047" lon="1.38944">
        <ele>155</ele>
        <time>2023-01-11T20:29:47Z</time>
      </trkpt>
      <trkpt lat="43.59049" lon="1.38942">
        <ele>155</ele>
        <time>2023-01-11T20:29:51Z</time>
      </trkpt>
      <trkpt lat="43.59047" lon="1.38944">
        <ele>154</ele>
        <time>2023-01-11T20:30:18Z</time>
      </trkpt>
      <trkpt lat="43.59044" lon="1.38945">
        <ele>154</ele>
        <time>2023-01-11T20:30:20Z</time>
      </trkpt>
      <trkpt lat="43.59042" lon="1.38946">
        <ele>154</ele>
        <time>2023-01-11T20:30:22Z</time>
      </trkpt>
      <trkpt lat="43.5904" lon="1.38948">
        <ele>154</ele>
        <time>2023-01-11T20:30:31Z</time>
      </trkpt>
      <trkpt lat="43.59042" lon="1.38947">
        <ele>154</ele>
        <time>2023-01-11T20:31:09Z</time>
      </trkpt>
      <trkpt lat="43.59045" lon="1.38946">
        <ele>154</ele>
        <time>2023-01-11T20:31:11Z</time>
      </trkpt>
      <trkpt lat="43.59047" lon="1.38945">
        <ele>154</ele>
        <time>2023-01-11T20:31:13Z</time>
      </trkpt>
      <trkpt lat="43.59049" lon="1.38944">
        <ele>154</ele>
        <time>2023-01-11T20:31:16Z</time>
      </trkpt>
      <trkpt lat="43.59047" lon="1.38946">
        <ele>154</ele>
        <time>2023-01-11T20:31:46Z</time>
      </trkpt>
      <trkpt lat="43.59045" lon="1.38947">
        <ele>154</ele>
        <time>2023-01-11T20:31:49Z</time>
      </trkpt>
      <trkpt lat="43.59047" lon="1.38945">
        <ele>154</ele>
        <time>2023-01-11T20:31:54Z</time>
      </trkpt>
      <trkpt lat="43.59049" lon="1.38944">
        <ele>154</ele>
        <time>2023-01-11T20:32:01Z</time>
      </trkpt>
      <trkpt lat="43.59048" lon="1.38941">
        <ele>153</ele>
        <time>2023-01-11T20:32:25Z</time>
      </trkpt>
      <trkpt lat="43.59046" lon="1.38944">
        <ele>153</ele>
        <time>2023-01-11T20:32:29Z</time>
      </trkpt>
      <trkpt lat="43.59045" lon="1.38945">
        <ele>153</ele>
        <time>2023-01-11T20:32:41Z</time>
      </trkpt>
      <trkpt lat="43.59047" lon="1.38944">
        <ele>153</ele>
        <time>2023-01-11T20:32:59Z</time>
      </trkpt>
      <trkpt lat="43.5905" lon="1.38943">
        <ele>153</ele>
        <time>2023-01-11T20:33:02Z</time>
      </trkpt>
      <trkpt lat="43.59051" lon="1.38942">
        <ele>153</ele>
        <time>2023-01-11T20:33:13Z</time>
      </trkpt>
      <trkpt lat="43.59049" lon="1.38944">
        <ele>153</ele>
        <time>2023-01-11T20:33:20Z</time>
      </trkpt>
      <trkpt lat="43.59047" lon="1.38945">
        <ele>153</ele>
        <time>2023-01-11T20:33:22Z</time>
      </trkpt>
      <trkpt lat="43.59046" lon="1.38946">
        <ele>153</ele>
        <time>2023-01-11T20:33:30Z</time>
      </trkpt>
      <trkpt lat="43.59048" lon="1.38944">
        <ele>153</ele>
        <time>2023-01-11T20:33:41Z</time>
      </trkpt>
      <trkpt lat="43.59051" lon="1.38942">
        <ele>153</ele>
        <time>2023-01-11T20:33:43Z</time>
      </trkpt>
      <trkpt lat="43.59053" lon="1.38942">
        <ele>153</ele>
        <time>2023-01-11T20:33:46Z</time>
      </trkpt>
      <trkpt lat="43.5905" lon="1.38943">
        <ele>153</ele>
        <time>2023-01-11T20:34:11Z</time>
      </trkpt>
      <trkpt lat="43.59048" lon="1.38944">
        <ele>153</ele>
        <time>2023-01-11T20:34:30Z</time>
      </trkpt>
      <trkpt lat="43.59046" lon="1.38945">
        <ele>153</ele>
        <time>2023-01-11T20:34:32Z</time>
      </trkpt>
      <trkpt lat="43.59044" lon="1.38945">
        <ele>153</ele>
        <time>2023-01-11T20:34:34Z</time>
      </trkpt>
      <trkpt lat="43.59043" lon="1.38946">
        <ele>153</ele>
        <time>2023-01-11T20:34:37Z</time>
      </trkpt>
      <trkpt lat="43.59042" lon="1.38948">
        <ele>154</ele>
        <time>2023-01-11T20:34:44Z</time>
      </trkpt>
      <trkpt lat="43.59043" lon="1.38946">
        <ele>153</ele>
        <time>2023-01-11T20:35:10Z</time>
      </trkpt>
      <trkpt lat="43.59045" lon="1.38946">
        <ele>153</ele>
        <time>2023-01-11T20:35:12Z</time>
      </trkpt>
      <trkpt lat="43.59047" lon="1.38946">
        <ele>153</ele>
        <time>2023-01-11T20:35:14Z</time>
      </trkpt>
      <trkpt lat="43.59049" lon="1.38945">
        <ele>153</ele>
        <time>2023-01-11T20:35:17Z</time>
      </trkpt>
      <trkpt lat="43.59051" lon="1.38944">
        <ele>153</ele>
        <time>2023-01-11T20:35:19Z</time>
      </trkpt>
      <trkpt lat="43.59049" lon="1.38944">
        <ele>153</ele>
        <time>2023-01-11T20:35:27Z</time>
      </trkpt>
      <trkpt lat="43.59047" lon="1.38944">
        <ele>153</ele>
        <time>2023-01-11T20:35:29Z</time>
      </trkpt>
      <trkpt lat="43.59045" lon="1.38946">
        <ele>153</ele>
        <time>2023-01-11T20:35:32Z</time>
      </trkpt>
      <trkpt lat="43.59047" lon="1.38943">
        <ele>154</ele>
        <time>2023-01-11T20:35:45Z</time>
      </trkpt>
      <trkpt lat="43.59049" lon="1.38942">
        <ele>154</ele>
        <time>2023-01-11T20:35:47Z</time>
      </trkpt>
      <trkpt lat="43.59051" lon="1.38943">
        <ele>153</ele>
        <time>2023-01-11T20:35:50Z</time>
      </trkpt>
      <trkpt lat="43.59049" lon="1.38944">
        <ele>154</ele>
        <time>2023-01-11T20:35:53Z</time>
      </trkpt>
      <trkpt lat="43.5905" lon="1.38942">
        <ele>153</ele>
        <time>2023-01-11T20:36:11Z</time>
      </trkpt>
      <trkpt lat="43.59052" lon="1.38942">
        <ele>153</ele>
        <time>2023-01-11T20:36:17Z</time>
      </trkpt>
      <trkpt lat="43.5905" lon="1.38943">
        <ele>153</ele>
        <time>2023-01-11T20:36:39Z</time>
      </trkpt>
      <trkpt lat="43.59049" lon="1.38945">
        <ele>153</ele>
        <time>2023-01-11T20:36:48Z</time>
      </trkpt>
      <trkpt lat="43.59048" lon="1.38947">
        <ele>153</ele>
        <time>2023-01-11T20:36:52Z</time>
      </trkpt>
      <trkpt lat="43.5905" lon="1.38945">
        <ele>153</ele>
        <time>2023-01-11T20:37:07Z</time>
      </trkpt>
      <trkpt lat="43.59052" lon="1.38944">
        <ele>153</ele>
        <time>2023-01-11T20:37:09Z</time>
      </trkpt>
      <trkpt lat="43.5905" lon="1.38942">
        <ele>153</ele>
        <time>2023-01-11T20:37:32Z</time>
      </trkpt>
      <trkpt lat="43.59048" lon="1.38943">
        <ele>153</ele>
        <time>2023-01-11T20:37:34Z</time>
      </trkpt>
      <trkpt lat="43.59047" lon="1.38945">
        <ele>154</ele>
        <time>2023-01-11T20:37:41Z</time>
      </trkpt>
      <trkpt lat="43.59049" lon="1.38943">
        <ele>154</ele>
        <time>2023-01-11T20:37:52Z</time>
      </trkpt>
      <trkpt lat="43.59048" lon="1.38944">
        <ele>153</ele>
        <time>2023-01-11T20:38:10Z</time>
      </trkpt>
      <trkpt lat="43.5905" lon="1.38943">
        <ele>153</ele>
        <time>2023-01-11T20:38:32Z</time>
      </trkpt>
      <trkpt lat="43.5905" lon="1.38942">
        <ele>153</ele>
        <time>2023-01-11T20:38:40Z</time>
      </trkpt>
    </trkseg>
  </trk>
</gpx>